Time;durP1;ratioP1;P1;durP2;ratioP2;P2;SDS_P1;SDS_P2;PMS_P1;PMS_P2;Temp;Humidity;BMP_temperature;BMP_pressure;BME280_temperature;BME280_humidity;BME280_pressure;Samples;Min_cycle;Max_cycle;Signal;HPM_P1;HPM_P2
2023/01/14 00:00:29;;;;;;;0.20;0.10;;;8.30;99.90;;;;;;21068649;28;20440;-73
2023/01/14 00:10:34;;;;;;;0.20;0.10;;;8.80;99.90;;;;;;21068450;28;20411;-72
2023/01/14 00:20:38;;;;;;;0.20;0.10;;;8.70;99.90;;;;;;21066855;28;20420;-71
2023/01/14 00:30:43;;;;;;;0.20;0.10;;;8.50;99.90;;;;;;21065708;28;20412;-71
2023/01/14 00:40:47;;;;;;;0.20;0.10;;;8.60;99.90;;;;;;21143517;28;20406;-74
2023/01/14 00:50:52;;;;;;;0.20;0.10;;;8.60;99.90;;;;;;21147419;28;20402;-71
2023/01/14 01:00:56;;;;;;;0.20;0.10;;;8.50;99.90;;;;;;21147644;28;20467;-71
2023/01/14 01:11:02;;;;;;;0.20;0.10;;;8.30;99.90;;;;;;21146654;28;20413;-67
2023/01/14 01:21:07;;;;;;;0.20;0.10;;;8.00;99.90;;;;;;21146050;28;20399;-71
2023/01/14 01:31:13;;;;;;;0.20;0.10;;;7.80;99.90;;;;;;21136339;28;20400;-71
2023/01/14 01:41:19;;;;;;;0.20;0.10;;;7.80;99.90;;;;;;21146391;28;20941;-71
2023/01/14 01:51:29;;;;;;;0.20;0.10;;;8.00;99.90;;;;;;21145437;28;20440;-70
2023/01/14 02:01:33;;;;;;;0.20;0.10;;;7.90;99.90;;;;;;21148187;28;20765;-70
2023/01/14 02:12:00;;;;;;;0.20;0.10;;;8.30;99.90;;;;;;21133590;27;20400;-71
2023/01/14 02:22:21;;;;;;;0.20;0.10;;;8.30;99.90;;;;;;21064351;28;20391;-72
2023/01/14 02:32:31;;;;;;;0.20;0.10;;;8.60;99.90;;;;;;21070669;28;20900;-72
2023/01/14 02:53:11;;;;;;;0.20;0.10;;;8.60;99.90;;;;;;21147269;28;20943;-72
2023/01/14 03:03:32;;;;;;;0.20;0.10;;;8.70;99.90;;;;;;21151011;28;20406;-72
2023/01/14 03:13:46;;;;;;;0.20;0.10;;;8.70;99.90;;;;;;21164211;28;20394;-72
2023/01/14 03:23:56;;;;;;;0.20;0.10;;;8.50;99.90;;;;;;21161555;28;20394;-72
2023/01/14 03:34:06;;;;;;;0.20;0.10;;;8.30;99.90;;;;;;21141429;28;20523;-72
2023/01/14 03:44:20;;;;;;;0.20;0.10;;;8.30;99.90;;;;;;21077207;28;20414;-72
2023/01/14 03:54:30;;;;;;;0.20;0.10;;;8.50;99.90;;;;;;21058649;28;20408;-73
2023/01/14 04:04:35;;;;;;;0.20;0.10;;;8.40;99.90;;;;;;21075985;28;20721;-73
2023/01/14 04:25:03;;;;;;;0.20;0.10;;;8.60;99.90;;;;;;21073534;28;20416;-73
2023/01/14 04:35:09;;;;;;;0.20;0.10;;;8.10;99.90;;;;;;21108751;28;20410;-74
2023/01/14 04:45:13;;;;;;;0.20;0.10;;;7.90;99.90;;;;;;21156643;27;20398;-74
2023/01/14 04:55:18;;;;;;;0.20;0.10;;;7.80;99.90;;;;;;21154675;28;20455;-74
2023/01/14 05:05:22;;;;;;;0.20;0.10;;;7.80;99.90;;;;;;21154545;28;20410;-75
2023/01/14 05:15:29;;;;;;;0.20;0.10;;;7.70;99.90;;;;;;21152811;28;20509;-74
2023/01/14 05:25:35;;;;;;;0.20;0.10;;;7.40;99.90;;;;;;21152266;28;20934;-72
2023/01/14 05:35:40;;;;;;;0.20;0.10;;;8.30;99.90;;;;;;21115828;28;20470;-72
2023/01/14 05:45:54;;;;;;;0.20;0.10;;;8.10;99.90;;;;;;21066665;28;20396;-71
2023/01/14 05:56:00;;;;;;;0.20;0.10;;;8.30;99.90;;;;;;21069371;28;20415;-71
2023/01/14 06:06:24;;;;;;;0.20;0.10;;;8.10;99.90;;;;;;21146944;28;20759;-72
2023/01/14 06:16:32;;;;;;;0.20;0.10;;;7.60;99.90;;;;;;21147216;28;20403;-72
2023/01/14 06:26:36;;;;;;;0.20;0.10;;;7.50;99.90;;;;;;21148405;28;20796;-75
2023/01/14 06:36:45;;;;;;;0.20;0.10;;;7.60;99.90;;;;;;21146407;28;20500;-73
2023/01/14 06:46:49;;;;;;;0.20;0.10;;;7.40;99.90;;;;;;21146161;28;20410;-74
2023/01/14 06:56:55;;;;;;;0.20;0.10;;;7.70;99.90;;;;;;21146978;28;20399;-74
2023/01/14 07:06:59;;;;;;;0.20;0.10;;;7.60;99.90;;;;;;21145993;28;20398;-73
2023/01/14 07:17:04;;;;;;;0.20;0.10;;;7.50;99.90;;;;;;21143821;28;20418;-74
2023/01/14 07:27:08;;;;;;;0.20;0.10;;;7.50;99.90;;;;;;21144601;28;20398;-71
2023/01/14 07:37:13;;;;;;;0.20;0.10;;;7.80;99.90;;;;;;21144621;28;20406;-71
2023/01/14 07:47:17;;;;;;;4.10;3.60;;;7.30;99.90;;;;;;21144516;28;20398;-75
2023/01/14 07:57:23;;;;;;;0.20;0.10;;;7.90;99.90;;;;;;21156653;28;20897;-73
2023/01/14 08:07:27;;;;;;;0.20;0.10;;;9.80;99.90;;;;;;21156500;28;20445;-71
2023/01/14 08:17:32;;;;;;;0.20;0.10;;;11.60;99.90;;;;;;21157047;28;20414;-73
2023/01/14 08:27:36;;;;;;;0.20;0.10;;;12.00;99.90;;;;;;21156548;28;20402;-72
2023/01/14 08:37:42;;;;;;;0.20;0.10;;;11.40;99.90;;;;;;21154061;28;20464;-74
2023/01/14 08:47:45;;;;;;;0.20;0.10;;;11.30;99.90;;;;;;21154114;28;20890;-70
2023/01/14 08:57:51;;;;;;;0.20;0.10;;;11.50;99.90;;;;;;21150822;28;20411;-72
2023/01/14 09:18:17;;;;;;;0.20;0.10;;;11.80;99.90;;;;;;21133879;28;20411;-72
2023/01/14 09:28:21;;;;;;;0.20;0.10;;;12.20;99.90;;;;;;21148700;28;20485;-73
2023/01/14 09:38:26;;;;;;;0.20;0.10;;;12.20;99.90;;;;;;21129688;28;20437;-73
2023/01/14 09:48:33;;;;;;;0.20;0.10;;;12.70;99.90;;;;;;21149128;27;20731;-73
2023/01/14 09:58:40;;;;;;;0.20;0.10;;;13.50;99.90;;;;;;21128020;28;20471;-73
2023/01/14 10:08:47;;;;;;;0.20;0.10;;;14.10;99.90;;;;;;21145557;28;20455;-72
2023/01/14 10:18:59;;;;;;;0.20;0.10;;;13.60;99.90;;;;;;21146060;28;20427;-74
2023/01/14 10:29:12;;;;;;;0.20;0.10;;;14.00;99.90;;;;;;21145996;28;20456;-72
2023/01/14 10:39:18;;;;;;;0.20;0.10;;;14.60;99.90;;;;;;21123467;28;20401;-73
2023/01/14 10:49:25;;;;;;;0.20;0.10;;;15.50;99.90;;;;;;21143922;28;20812;-73
2023/01/14 10:59:39;;;;;;;0.20;0.10;;;15.40;99.90;;;;;;21142599;28;20403;-75
2023/01/14 11:09:43;;;;;;;0.20;0.10;;;15.30;99.90;;;;;;21142189;28;20459;-70
2023/01/14 11:19:49;;;;;;;0.20;0.10;;;15.90;99.90;;;;;;21141823;28;20418;-70
2023/01/14 11:29:55;;;;;;;0.20;0.10;;;16.40;99.90;;;;;;21155481;28;20469;-73
2023/01/14 11:40:02;;;;;;;0.20;0.10;;;16.00;99.90;;;;;;21138911;28;20406;-72
2023/01/14 11:50:19;;;;;;;0.20;0.00;;;16.30;99.90;;;;;;21157936;28;20502;-72
2023/01/14 12:00:24;;;;;;;0.20;0.00;;;17.30;99.90;;;;;;21136862;28;20433;-71
2023/01/14 12:10:31;;;;;;;0.20;0.00;;;17.80;99.90;;;;;;21153638;28;20398;-72
2023/01/14 12:20:38;;;;;;;0.20;0.00;;;18.20;99.90;;;;;;21149984;28;20403;-71
2023/01/14 12:30:51;;;;;;;0.20;0.10;;;18.50;99.90;;;;;;21150485;28;20770;-68
2023/01/14 12:51:26;;;;;;;0.20;0.00;;;19.20;99.90;;;;;;21152420;28;20569;-70
2023/01/14 13:01:38;;;;;;;0.20;0.05;;;18.90;99.90;;;;;;21152623;28;20792;-71
2023/01/14 13:11:45;;;;;;;0.20;0.03;;;19.70;99.90;;;;;;21132275;28;20383;-70
2023/01/14 13:21:59;;;;;;;0.20;0.00;;;19.60;99.90;;;;;;21149457;28;20403;-70
2023/01/14 13:32:04;;;;;;;0.20;0.00;;;20.40;99.90;;;;;;21150316;28;20949;-71
2023/01/14 13:42:22;;;;;;;0.20;0.00;;;20.30;99.90;;;;;;21148622;28;20418;-70
2023/01/14 13:52:28;;;;;;;0.20;0.03;;;20.50;99.90;;;;;;21147342;28;20911;-71
2023/01/14 14:02:50;;;;;;;0.20;0.00;;;21.70;99.90;;;;;;21146446;28;20399;-71
2023/01/14 14:23:24;;;;;;;0.20;0.00;;;22.00;99.90;;;;;;21146268;28;20407;-70
2023/01/14 14:33:34;;;;;;;0.20;0.10;;;22.30;99.90;;;;;;21145211;28;20390;-71
2023/01/14 14:43:39;;;;;;;0.20;0.05;;;22.40;99.90;;;;;;21144462;28;20505;-70
2023/01/14 14:53:46;;;;;;;0.20;0.00;;;22.40;99.90;;;;;;21138835;28;21284;-70
2023/01/14 15:03:53;;;;;;;0.20;0.10;;;19.90;99.90;;;;;;21139392;28;20497;-71
2023/01/14 15:13:59;;;;;;;0.20;0.10;;;19.20;99.90;;;;;;21140262;28;20481;-71
2023/01/14 15:24:09;;;;;;;0.20;0.00;;;18.80;99.90;;;;;;21138528;28;20933;-70
2023/01/14 15:34:26;;;;;;;0.20;0.00;;;19.30;99.90;;;;;;21139015;28;20754;-71
2023/01/14 15:44:33;;;;;;;0.20;0.10;;;19.00;99.90;;;;;;21137773;28;20403;-70
2023/01/14 15:54:40;;;;;;;0.20;0.00;;;19.10;99.90;;;;;;21135840;28;20471;-72
2023/01/14 16:04:46;;;;;;;0.20;0.00;;;19.10;99.90;;;;;;21119703;28;20436;-72
2023/01/14 16:14:50;;;;;;;0.20;0.10;;;18.00;99.90;;;;;;21131291;28;20911;-72
2023/01/14 16:24:55;;;;;;;0.20;0.10;;;17.10;99.90;;;;;;21150814;28;20411;-73
2023/01/14 16:34:59;;;;;;;0.20;0.10;;;16.30;99.90;;;;;;21133290;27;20787;-72
2023/01/14 16:45:05;;;;;;;0.20;0.10;;;15.80;99.90;;;;;;21125370;28;20414;-72
2023/01/14 16:55:18;;;;;;;0.20;0.10;;;15.40;99.90;;;;;;21140940;28;20463;-74
2023/01/14 17:05:23;;;;;;;0.20;0.10;;;15.10;99.90;;;;;;21121034;28;20442;-71
2023/01/14 17:15:28;;;;;;;0.20;0.00;;;14.90;99.90;;;;;;21088610;27;21285;-71
2023/01/14 17:25:33;;;;;;;0.20;0.10;;;14.80;99.90;;;;;;21110318;28;20410;-72
2023/01/14 17:35:37;;;;;;;0.20;0.10;;;14.80;99.90;;;;;;21106742;28;20389;-71
2023/01/14 17:45:43;;;;;;;0.20;0.10;;;14.50;99.90;;;;;;21099119;28;20837;-72
2023/01/14 17:55:46;;;;;;;0.20;0.10;;;14.40;99.90;;;;;;21085478;28;20400;-67
2023/01/14 18:05:52;;;;;;;0.20;0.10;;;13.70;99.90;;;;;;21134889;28;20402;-72
2023/01/14 18:15:57;;;;;;;0.20;0.10;;;13.60;99.90;;;;;;21084845;28;20897;-71
2023/01/14 18:26:05;;;;;;;0.20;0.10;;;13.90;99.90;;;;;;21099660;28;20926;-70
2023/01/14 18:36:10;;;;;;;0.20;0.10;;;14.20;99.90;;;;;;21082265;28;20404;-71
2023/01/14 18:46:18;;;;;;;0.20;0.10;;;14.40;99.90;;;;;;21069689;27;20423;-70
2023/01/14 18:56:24;;;;;;;0.20;0.10;;;14.50;99.90;;;;;;21067586;28;20403;-70
2023/01/14 19:06:32;;;;;;;0.20;0.10;;;14.30;99.90;;;;;;21181906;28;20421;-70
2023/01/14 19:16:37;;;;;;;0.20;0.10;;;14.10;99.90;;;;;;21147615;28;20410;-71
2023/01/14 19:26:42;;;;;;;0.20;0.10;;;14.00;99.90;;;;;;21137393;28;20390;-70
2023/01/14 19:36:46;;;;;;;0.20;0.10;;;13.60;99.90;;;;;;21133362;28;20399;-70
2023/01/14 19:46:52;;;;;;;0.20;0.10;;;13.40;99.90;;;;;;21144157;28;20425;-70
2023/01/14 19:56:56;;;;;;;0.20;0.10;;;13.30;99.90;;;;;;21152195;28;20532;-70
2023/01/14 20:07:01;;;;;;;0.20;0.10;;;13.20;99.90;;;;;;21094117;28;20404;-75
2023/01/14 20:17:05;;;;;;;0.20;0.10;;;13.20;99.90;;;;;;21073010;28;20730;-71
2023/01/14 20:27:10;;;;;;;0.20;0.10;;;12.60;99.90;;;;;;21099244;28;20947;-72
2023/01/14 20:37:15;;;;;;;0.20;0.10;;;12.30;99.90;;;;;;21120537;28;20410;-72
2023/01/14 20:47:20;;;;;;;0.20;0.10;;;12.40;99.90;;;;;;21149736;28;20392;-71
2023/01/14 20:57:29;;;;;;;0.20;0.10;;;12.70;99.90;;;;;;21107546;28;20409;-71
2023/01/14 21:07:34;;;;;;;0.20;0.10;;;12.60;99.90;;;;;;21104992;28;20940;-71
2023/01/14 21:28:02;;;;;;;0.20;0.10;;;12.90;99.90;;;;;;21109811;27;20407;-71
2023/01/14 21:38:07;;;;;;;0.20;0.10;;;13.00;99.90;;;;;;21110660;27;20460;-70
2023/01/14 21:48:13;;;;;;;0.20;0.10;;;12.80;99.90;;;;;;21104155;28;21036;-71
2023/01/14 21:58:20;;;;;;;0.20;0.10;;;12.60;99.90;;;;;;21105399;28;20412;-71
2023/01/14 22:08:27;;;;;;;0.20;0.10;;;11.90;99.90;;;;;;21102170;28;20453;-71
2023/01/14 22:18:32;;;;;;;0.20;0.10;;;11.70;99.90;;;;;;21101410;28;20498;-71
2023/01/14 22:28:37;;;;;;;0.20;0.10;;;12.40;99.90;;;;;;21085788;28;20394;-71
2023/01/14 22:38:42;;;;;;;0.20;0.00;;;13.50;99.90;;;;;;21100936;28;20469;-70
2023/01/14 22:48:47;;;;;;;0.20;0.10;;;13.60;99.90;;;;;;21099812;28;20442;-70
2023/01/14 22:58:51;;;;;;;0.20;0.10;;;12.90;99.90;;;;;;21099998;28;20442;-72
2023/01/14 23:08:56;;;;;;;0.20;0.10;;;13.10;99.90;;;;;;21100130;28;20454;-72
2023/01/14 23:19:00;;;;;;;0.20;0.10;;;13.60;99.90;;;;;;21102181;28;20495;-70
2023/01/14 23:29:07;;;;;;;0.20;0.10;;;13.40;99.90;;;;;;21099645;28;20470;-71
2023/01/14 23:39:13;;;;;;;0.20;0.10;;;12.90;99.90;;;;;;21115664;28;20407;-71
2023/01/14 23:49:18;;;;;;;0.20;0.03;;;13.40;99.90;;;;;;21131562;27;20482;-70
2023/01/14 23:59:23;;;;;;;0.20;0.10;;;13.20;99.90;;;;;;21114360;28;20448;-71
